Time;durP1;ratioP1;P1;durP2;ratioP2;P2;SDS_P1;SDS_P2;PMS_P1;PMS_P2;Temp;Humidity;BMP_temperature;BMP_pressure;BME280_temperature;BME280_humidity;BME280_pressure;Samples;Min_cycle;Max_cycle;Signal;HPM_P1;HPM_P2
2024/04/21 00:01:41;;;;;;;12.35;7.22;;;;;;;;;;5378111;26;20342;-67
2024/04/21 00:04:07;;;;;;;15.90;7.93;;;;;;;;;;5377995;26;19992;-67
2024/04/21 00:06:33;;;;;;;12.13;7.10;;;;;;;;;;5378066;26;19996;-67
2024/04/21 00:08:59;;;;;;;12.10;7.03;;;;;;;;;;5378360;26;20019;-67
2024/04/21 00:11:25;;;;;;;12.70;7.40;;;;;;;;;;5377938;26;20071;-66
2024/04/21 00:13:51;;;;;;;11.70;7.00;;;;;;;;;;5377802;26;20357;-67
2024/04/21 00:16:17;;;;;;;11.63;6.90;;;;;;;;;;5378390;26;20004;-67
2024/04/21 00:18:43;;;;;;;11.32;6.65;;;;;;;;;;5377868;26;20071;-66
2024/04/21 00:21:09;;;;;;;12.55;8.13;;;;;;;;;;5378323;26;19996;-68
2024/04/21 00:23:37;;;;;;;11.15;6.55;;;;;;;;;;5377223;26;20039;-66
2024/04/21 00:26:03;;;;;;;11.50;6.70;;;;;;;;;;5376038;26;20311;-66
2024/04/21 00:28:30;;;;;;;10.80;6.35;;;;;;;;;;5376465;26;20044;-67
2024/04/21 00:30:56;;;;;;;11.05;6.50;;;;;;;;;;5378431;26;20303;-68
2024/04/21 00:33:22;;;;;;;11.25;6.55;;;;;;;;;;5377402;26;20004;-67
2024/04/21 00:35:48;;;;;;;11.43;6.75;;;;;;;;;;5377819;26;20002;-67
2024/04/21 00:38:17;;;;;;;11.25;6.60;;;;;;;;;;5377434;26;19992;-67
2024/04/21 00:40:43;;;;;;;11.50;6.70;;;;;;;;;;5376167;26;20006;-67
2024/04/21 00:43:10;;;;;;;11.50;6.80;;;;;;;;;;5377395;26;20011;-66
2024/04/21 00:45:41;;;;;;;13.95;7.55;;;;;;;;;;5378174;26;19996;-67
2024/04/21 00:48:08;;;;;;;11.55;6.75;;;;;;;;;;5377809;26;20000;-69
2024/04/21 00:50:34;;;;;;;11.32;6.60;;;;;;;;;;5378120;26;20004;-67
2024/04/21 00:53:01;;;;;;;11.43;6.65;;;;;;;;;;5377332;26;20004;-67
2024/04/21 00:55:28;;;;;;;11.20;6.60;;;;;;;;;;5402244;26;20007;-66
2024/04/21 00:57:54;;;;;;;11.80;6.90;;;;;;;;;;5413111;26;21003;-68
2024/04/21 01:00:21;;;;;;;11.60;6.80;;;;;;;;;;5410870;26;20116;-67
2024/04/21 01:02:47;;;;;;;11.82;6.93;;;;;;;;;;5411426;26;19999;-67
2024/04/21 01:05:13;;;;;;;11.73;6.82;;;;;;;;;;5412518;26;20007;-67
2024/04/21 01:07:39;;;;;;;11.90;7.00;;;;;;;;;;5413352;26;20007;-67
2024/04/21 01:10:05;;;;;;;11.80;6.90;;;;;;;;;;5413066;26;20046;-67
2024/04/21 01:12:38;;;;;;;11.50;6.70;;;;;;;;;;5381148;26;20399;-67
2024/04/21 01:15:04;;;;;;;12.10;7.10;;;;;;;;;;5377125;26;20004;-67
2024/04/21 01:17:30;;;;;;;11.45;6.75;;;;;;;;;;5378301;26;20008;-68
2024/04/21 01:19:56;;;;;;;11.55;6.80;;;;;;;;;;5377354;26;20010;-68
2024/04/21 01:22:22;;;;;;;11.70;6.82;;;;;;;;;;5377056;26;20007;-65
2024/04/21 01:24:48;;;;;;;11.73;6.82;;;;;;;;;;5376202;26;20319;-67
2024/04/21 01:27:14;;;;;;;11.27;6.60;;;;;;;;;;5377064;26;19992;-67
2024/04/21 01:29:40;;;;;;;11.38;6.68;;;;;;;;;;5377260;26;19998;-67
2024/04/21 01:32:06;;;;;;;11.15;6.55;;;;;;;;;;5376640;26;20091;-68
2024/04/21 01:34:32;;;;;;;11.32;6.68;;;;;;;;;;5374724;26;19992;-66
2024/04/21 01:36:58;;;;;;;11.25;6.60;;;;;;;;;;5377151;26;20556;-66
2024/04/21 01:39:24;;;;;;;11.40;6.70;;;;;;;;;;5377092;26;20004;-67
2024/04/21 01:41:50;;;;;;;11.60;6.90;;;;;;;;;;5377135;26;20000;-67
2024/04/21 01:44:16;;;;;;;11.32;6.65;;;;;;;;;;5376310;26;20066;-67
2024/04/21 01:46:42;;;;;;;11.45;6.70;;;;;;;;;;5376563;26;19996;-67
2024/04/21 01:49:08;;;;;;;11.20;6.60;;;;;;;;;;5374913;26;20683;-67
2024/04/21 01:51:34;;;;;;;10.50;6.18;;;;;;;;;;5376851;26;19992;-67
2024/04/21 01:54:00;;;;;;;10.98;6.43;;;;;;;;;;5376529;26;20002;-67
2024/04/21 01:56:26;;;;;;;11.02;6.50;;;;;;;;;;5377047;26;20073;-67
2024/04/21 01:58:52;;;;;;;10.73;6.30;;;;;;;;;;5377208;26;20007;-67
2024/04/21 02:01:18;;;;;;;10.50;6.20;;;;;;;;;;5375076;26;20046;-68
2024/04/21 02:03:44;;;;;;;11.00;6.50;;;;;;;;;;5376181;26;20087;-67
2024/04/21 02:06:10;;;;;;;10.80;6.30;;;;;;;;;;5377023;26;19992;-67
2024/04/21 02:08:36;;;;;;;10.65;6.28;;;;;;;;;;5376374;26;20010;-67
2024/04/21 02:11:02;;;;;;;10.55;6.20;;;;;;;;;;5376671;26;20020;-67
2024/04/21 02:13:28;;;;;;;10.65;6.22;;;;;;;;;;5375896;26;20008;-67
2024/04/21 02:15:54;;;;;;;10.68;6.28;;;;;;;;;;5375232;26;19988;-69
2024/04/21 02:18:20;;;;;;;10.27;6.00;;;;;;;;;;5376484;26;20007;-67
2024/04/21 02:20:46;;;;;;;9.90;5.90;;;;;;;;;;5374201;26;20078;-66
2024/04/21 02:23:12;;;;;;;9.88;5.80;;;;;;;;;;5375722;26;19996;-67
2024/04/21 02:25:38;;;;;;;9.95;5.90;;;;;;;;;;5376448;26;20004;-67
2024/04/21 02:28:04;;;;;;;10.07;5.90;;;;;;;;;;5376406;26;20003;-66
2024/04/21 02:30:30;;;;;;;10.38;6.10;;;;;;;;;;5374569;26;20062;-67
2024/04/21 02:32:56;;;;;;;10.50;6.20;;;;;;;;;;5373161;26;19992;-66
2024/04/21 02:35:22;;;;;;;9.80;5.82;;;;;;;;;;5376634;26;20751;-66
2024/04/21 02:37:48;;;;;;;10.30;6.10;;;;;;;;;;5376332;26;19996;-67
2024/04/21 02:40:14;;;;;;;10.55;6.20;;;;;;;;;;5376241;26;20083;-67
2024/04/21 02:42:40;;;;;;;10.20;6.00;;;;;;;;;;5375288;26;19996;-67
2024/04/21 02:45:06;;;;;;;10.23;6.07;;;;;;;;;;5375697;26;20359;-68
2024/04/21 02:47:32;;;;;;;10.25;6.07;;;;;;;;;;5376502;26;20002;-67
2024/04/21 02:49:58;;;;;;;10.20;6.07;;;;;;;;;;5376881;26;20716;-67
2024/04/21 02:52:24;;;;;;;10.05;5.93;;;;;;;;;;5375972;26;20015;-67
2024/04/21 02:54:50;;;;;;;10.10;5.97;;;;;;;;;;5375102;26;20460;-67
2024/04/21 02:57:17;;;;;;;9.90;5.80;;;;;;;;;;5374733;26;20007;-66
2024/04/21 02:59:43;;;;;;;10.20;6.00;;;;;;;;;;5375834;26;20004;-67
2024/04/21 03:02:09;;;;;;;9.73;5.70;;;;;;;;;;5375249;26;20011;-66
2024/04/21 03:04:35;;;;;;;9.50;5.60;;;;;;;;;;5375730;26;20098;-66
2024/04/21 03:07:01;;;;;;;9.85;5.88;;;;;;;;;;5376060;26;20007;-67
2024/04/21 03:09:27;;;;;;;9.32;5.55;;;;;;;;;;5375473;26;20074;-67
2024/04/21 03:11:53;;;;;;;10.15;6.00;;;;;;;;;;5375273;26;20331;-68
2024/04/21 03:14:19;;;;;;;10.52;6.18;;;;;;;;;;5374875;26;19996;-67
2024/04/21 03:16:47;;;;;;;10.32;6.10;;;;;;;;;;5375349;26;20093;-67
2024/04/21 03:19:12;;;;;;;9.90;5.80;;;;;;;;;;5375025;26;20715;-67
2024/04/21 03:21:38;;;;;;;10.40;6.10;;;;;;;;;;5374674;26;19996;-67
2024/04/21 03:24:05;;;;;;;10.38;6.10;;;;;;;;;;5374713;26;20357;-67
2024/04/21 03:26:31;;;;;;;10.60;6.20;;;;;;;;;;5377130;26;20673;-67
2024/04/21 03:28:56;;;;;;;9.90;5.80;;;;;;;;;;5378576;26;20010;-66
2024/04/21 03:31:22;;;;;;;9.70;5.70;;;;;;;;;;5379363;26;20523;-67
2024/04/21 03:33:48;;;;;;;9.90;5.82;;;;;;;;;;5378553;26;20001;-66
2024/04/21 03:36:14;;;;;;;10.23;6.03;;;;;;;;;;5377090;26;19996;-67
2024/04/21 03:38:41;;;;;;;9.73;5.72;;;;;;;;;;5378709;26;20442;-69
2024/04/21 03:41:07;;;;;;;10.30;6.10;;;;;;;;;;5377782;26;20011;-67
2024/04/21 03:43:33;;;;;;;10.30;6.10;;;;;;;;;;5377699;26;20398;-66
2024/04/21 03:45:59;;;;;;;10.10;5.97;;;;;;;;;;5378445;26;19999;-66
2024/04/21 03:48:25;;;;;;;10.10;6.00;;;;;;;;;;5378241;26;20008;-67
2024/04/21 03:50:51;;;;;;;10.30;6.10;;;;;;;;;;5378734;26;20004;-67
2024/04/21 03:53:17;;;;;;;10.18;6.00;;;;;;;;;;5375889;26;20000;-66
2024/04/21 03:55:44;;;;;;;10.30;6.10;;;;;;;;;;5376725;26;20000;-67
2024/04/21 03:58:11;;;;;;;10.32;6.07;;;;;;;;;;5376718;26;19992;-67
2024/04/21 04:00:37;;;;;;;10.75;6.30;;;;;;;;;;5378819;26;20043;-66
2024/04/21 04:03:04;;;;;;;10.68;6.30;;;;;;;;;;5378160;26;19996;-67
2024/04/21 04:05:29;;;;;;;10.45;6.15;;;;;;;;;;5377983;26;20008;-67
2024/04/21 04:07:55;;;;;;;10.80;6.30;;;;;;;;;;5378156;26;19992;-67
2024/04/21 04:10:21;;;;;;;10.80;6.40;;;;;;;;;;5378341;26;20003;-67
2024/04/21 04:12:47;;;;;;;10.50;6.20;;;;;;;;;;5378190;26;19988;-67
2024/04/21 04:15:14;;;;;;;10.70;6.30;;;;;;;;;;5375945;26;19992;-67
2024/04/21 04:17:40;;;;;;;10.30;6.10;;;;;;;;;;5378079;26;20019;-67
2024/04/21 04:20:07;;;;;;;10.63;6.28;;;;;;;;;;5378507;26;19992;-67
2024/04/21 04:22:39;;;;;;;10.60;6.20;;;;;;;;;;5376207;26;19992;-67
2024/04/21 04:25:05;;;;;;;10.30;6.00;;;;;;;;;;5378083;26;20008;-67
2024/04/21 04:27:32;;;;;;;10.40;6.13;;;;;;;;;;5377929;26;19996;-67
2024/04/21 04:29:58;;;;;;;10.45;6.18;;;;;;;;;;5378788;26;20351;-67
2024/04/21 04:32:24;;;;;;;10.32;6.13;;;;;;;;;;5378337;26;20353;-66
2024/04/21 04:34:51;;;;;;;10.45;6.15;;;;;;;;;;5377988;26;19992;-67
2024/04/21 04:37:17;;;;;;;9.80;5.78;;;;;;;;;;5377028;26;19997;-68
2024/04/21 04:39:43;;;;;;;10.15;6.00;;;;;;;;;;5378111;26;20354;-67
2024/04/21 04:42:09;;;;;;;10.02;5.90;;;;;;;;;;5377605;26;20000;-67
2024/04/21 04:44:35;;;;;;;10.10;5.95;;;;;;;;;;5377386;26;20064;-66
2024/04/21 04:47:01;;;;;;;10.05;5.90;;;;;;;;;;5377825;26;19996;-67
2024/04/21 04:49:27;;;;;;;9.98;5.90;;;;;;;;;;5376998;26;20070;-66
2024/04/21 04:51:53;;;;;;;10.27;6.10;;;;;;;;;;5377652;26;19999;-66
2024/04/21 04:54:19;;;;;;;9.80;5.80;;;;;;;;;;5387963;26;20422;-66
2024/04/21 04:56:45;;;;;;;9.70;5.75;;;;;;;;;;5393694;26;20004;-67
2024/04/21 04:59:11;;;;;;;9.80;5.80;;;;;;;;;;5400375;26;20019;-66
2024/04/21 05:01:37;;;;;;;9.73;5.78;;;;;;;;;;5413117;26;19995;-67
2024/04/21 05:04:03;;;;;;;10.07;5.93;;;;;;;;;;5379247;26;19996;-66
2024/04/21 05:06:29;;;;;;;10.18;6.00;;;;;;;;;;5377707;26;19996;-67
2024/04/21 05:08:55;;;;;;;10.20;6.00;;;;;;;;;;5377672;26;20036;-67
2024/04/21 05:11:21;;;;;;;10.00;5.90;;;;;;;;;;5377338;26;20408;-67
2024/04/21 05:13:47;;;;;;;10.23;6.00;;;;;;;;;;5376671;26;19996;-66
2024/04/21 05:16:16;;;;;;;10.07;5.90;;;;;;;;;;5377249;26;20011;-66
2024/04/21 05:18:42;;;;;;;9.90;5.85;;;;;;;;;;5377386;26;19993;-66
2024/04/21 05:21:08;;;;;;;10.10;5.97;;;;;;;;;;5377303;26;19995;-66
2024/04/21 05:23:36;;;;;;;10.30;6.00;;;;;;;;;;5376595;26;20035;-66
2024/04/21 05:26:02;;;;;;;10.30;6.07;;;;;;;;;;5377307;26;19993;-67
2024/04/21 05:28:28;;;;;;;9.80;5.80;;;;;;;;;;5390835;26;20465;-67
2024/04/21 05:30:54;;;;;;;9.70;5.70;;;;;;;;;;5412672;26;20007;-66
2024/04/21 05:33:20;;;;;;;9.68;5.70;;;;;;;;;;5412222;26;20028;-64
2024/04/21 05:35:46;;;;;;;9.88;5.80;;;;;;;;;;5411690;26;20098;-65
2024/04/21 05:38:12;;;;;;;9.95;5.85;;;;;;;;;;5413341;26;19995;-65
2024/04/21 05:40:38;;;;;;;9.90;5.80;;;;;;;;;;5411858;26;20007;-66
2024/04/21 05:43:04;;;;;;;9.90;5.80;;;;;;;;;;5411324;26;20046;-66
2024/04/21 05:45:30;;;;;;;10.10;5.93;;;;;;;;;;5412527;26;20471;-67
2024/04/21 05:47:56;;;;;;;10.30;6.10;;;;;;;;;;5412196;26;20000;-68
2024/04/21 05:50:22;;;;;;;11.00;6.45;;;;;;;;;;5411924;26;19999;-68
2024/04/21 05:52:48;;;;;;;10.32;6.07;;;;;;;;;;5411428;26;20081;-71
2024/04/21 05:55:14;;;;;;;10.45;6.18;;;;;;;;;;5402659;26;20261;-67
2024/04/21 05:57:40;;;;;;;10.43;6.10;;;;;;;;;;5376501;26;20441;-68
2024/04/21 06:00:07;;;;;;;9.80;5.80;;;;;;;;;;5377871;26;19992;-69
2024/04/21 06:02:33;;;;;;;10.10;5.97;;;;;;;;;;5376190;26;20469;-67
2024/04/21 06:04:59;;;;;;;9.80;5.78;;;;;;;;;;5376144;26;20435;-65
2024/04/21 06:07:25;;;;;;;9.80;5.80;;;;;;;;;;5376408;26;19996;-65
2024/04/21 06:09:52;;;;;;;9.98;5.88;;;;;;;;;;5376609;26;20524;-65
2024/04/21 06:12:18;;;;;;;9.90;5.80;;;;;;;;;;5376080;26;20465;-65
2024/04/21 06:14:44;;;;;;;10.05;5.90;;;;;;;;;;5376559;26;20050;-65
2024/04/21 06:17:10;;;;;;;10.05;5.93;;;;;;;;;;5376156;26;20490;-65
2024/04/21 06:19:37;;;;;;;9.70;5.75;;;;;;;;;;5375905;26;20015;-65
2024/04/21 06:22:03;;;;;;;10.63;6.35;;;;;;;;;;5375745;26;20048;-65
2024/04/21 06:24:29;;;;;;;10.05;5.90;;;;;;;;;;5374036;26;20351;-65
2024/04/21 06:26:55;;;;;;;9.85;5.80;;;;;;;;;;5374769;26;19996;-63
2024/04/21 06:29:21;;;;;;;9.80;5.78;;;;;;;;;;5385284;26;20425;-65
2024/04/21 06:31:47;;;;;;;11.13;6.43;;;;;;;;;;5411514;26;20011;-66
2024/04/21 06:34:13;;;;;;;10.38;6.10;;;;;;;;;;5410831;26;19996;-66
2024/04/21 06:36:39;;;;;;;10.40;6.10;;;;;;;;;;5411740;26;20138;-65
2024/04/21 06:39:05;;;;;;;10.15;5.95;;;;;;;;;;5411279;26;20044;-65
2024/04/21 06:41:31;;;;;;;10.15;6.00;;;;;;;;;;5409806;26;20072;-66
2024/04/21 06:43:57;;;;;;;10.23;6.13;;;;;;;;;;5409865;26;20003;-65
2024/04/21 06:46:23;;;;;;;10.23;6.00;;;;;;;;;;5411521;26;19995;-65
2024/04/21 06:48:48;;;;;;;9.93;5.88;;;;;;;;;;5411334;26;19991;-64
2024/04/21 06:51:14;;;;;;;10.13;5.93;;;;;;;;;;5411140;26;20067;-65
2024/04/21 06:53:41;;;;;;;10.13;6.00;;;;;;;;;;5410614;26;20003;-63
2024/04/21 06:56:07;;;;;;;10.75;6.30;;;;;;;;;;5410945;26;20445;-64
2024/04/21 06:58:33;;;;;;;10.52;6.20;;;;;;;;;;5411289;26;20031;-65
2024/04/21 07:00:59;;;;;;;11.07;6.47;;;;;;;;;;5411703;26;20002;-65
2024/04/21 07:03:24;;;;;;;10.32;6.03;;;;;;;;;;5413607;26;20345;-65
2024/04/21 07:05:50;;;;;;;10.75;6.30;;;;;;;;;;5413684;26;19999;-65
2024/04/21 07:08:16;;;;;;;10.55;6.20;;;;;;;;;;5411811;26;20023;-63
2024/04/21 07:10:42;;;;;;;10.60;6.20;;;;;;;;;;5411984;26;19987;-63
2024/04/21 07:13:08;;;;;;;10.30;6.00;;;;;;;;;;5413273;26;19988;-64
2024/04/21 07:15:35;;;;;;;9.98;5.90;;;;;;;;;;5413565;26;19995;-64
2024/04/21 07:18:01;;;;;;;9.90;5.80;;;;;;;;;;5413980;26;20416;-65
2024/04/21 07:20:27;;;;;;;9.82;5.78;;;;;;;;;;5412119;26;19998;-63
2024/04/21 07:22:52;;;;;;;10.23;6.00;;;;;;;;;;5411924;26;20111;-64
2024/04/21 07:25:18;;;;;;;11.52;6.63;;;;;;;;;;5413765;26;20000;-65
2024/04/21 07:27:44;;;;;;;11.77;6.82;;;;;;;;;;5414092;26;19998;-64
2024/04/21 07:30:10;;;;;;;11.80;6.90;;;;;;;;;;5413535;26;20409;-65
2024/04/21 07:32:37;;;;;;;11.80;6.90;;;;;;;;;;5413186;26;20010;-65
2024/04/21 07:35:03;;;;;;;11.98;7.00;;;;;;;;;;5413689;26;20473;-65
2024/04/21 07:37:29;;;;;;;12.07;7.00;;;;;;;;;;5414087;26;20008;-63
2024/04/21 07:39:56;;;;;;;11.45;6.65;;;;;;;;;;5413841;26;19991;-63
2024/04/21 07:42:22;;;;;;;11.98;6.95;;;;;;;;;;5413146;26;20006;-64
2024/04/21 07:44:48;;;;;;;12.25;7.10;;;;;;;;;;5412626;26;20619;-64
2024/04/21 07:47:14;;;;;;;12.50;7.30;;;;;;;;;;5413513;26;19995;-66
2024/04/21 07:49:40;;;;;;;13.10;7.70;;;;;;;;;;5412938;26;19991;-65
2024/04/21 07:52:06;;;;;;;13.05;7.63;;;;;;;;;;5411021;26;20064;-64
2024/04/21 07:54:32;;;;;;;13.25;7.85;;;;;;;;;;5411381;26;20407;-65
2024/04/21 07:56:59;;;;;;;13.40;8.02;;;;;;;;;;5384536;26;20000;-65
2024/04/21 07:59:25;;;;;;;13.38;8.00;;;;;;;;;;5376213;26;20007;-64
2024/04/21 08:01:51;;;;;;;13.02;7.60;;;;;;;;;;5377587;26;20004;-65
2024/04/21 08:04:17;;;;;;;13.20;7.72;;;;;;;;;;5377369;26;19992;-65
2024/04/21 08:06:43;;;;;;;13.07;7.68;;;;;;;;;;5377594;26;19992;-65
2024/04/21 08:09:09;;;;;;;11.95;6.97;;;;;;;;;;5377891;26;20003;-65
2024/04/21 08:11:35;;;;;;;11.52;6.78;;;;;;;;;;5377473;26;19996;-65
2024/04/21 08:14:01;;;;;;;11.98;7.00;;;;;;;;;;5378220;26;19992;-65
2024/04/21 08:16:27;;;;;;;12.82;7.40;;;;;;;;;;5412686;26;20015;-65
2024/04/21 08:18:53;;;;;;;12.90;7.50;;;;;;;;;;5413305;26;20341;-65
2024/04/21 08:21:19;;;;;;;12.50;7.20;;;;;;;;;;5412894;26;19998;-68
2024/04/21 08:23:45;;;;;;;12.60;7.32;;;;;;;;;;5413268;26;20003;-62
2024/04/21 08:26:11;;;;;;;13.32;7.88;;;;;;;;;;5413342;26;19999;-63
2024/04/21 08:28:37;;;;;;;13.25;7.85;;;;;;;;;;5411025;26;19991;-61
2024/04/21 08:31:03;;;;;;;13.13;7.65;;;;;;;;;;5412864;26;19992;-63
2024/04/21 08:33:29;;;;;;;13.20;7.60;;;;;;;;;;5411963;26;20105;-65
2024/04/21 08:35:55;;;;;;;12.82;7.45;;;;;;;;;;5413474;26;20003;-64
2024/04/21 08:38:22;;;;;;;12.70;7.40;;;;;;;;;;5413168;26;19992;-65
2024/04/21 08:40:49;;;;;;;12.40;7.20;;;;;;;;;;5410370;26;20434;-66
2024/04/21 08:43:18;;;;;;;13.27;7.82;;;;;;;;;;5411660;26;19987;-65
2024/04/21 08:45:45;;;;;;;13.10;7.70;;;;;;;;;;5412220;26;20032;-65
2024/04/21 08:48:12;;;;;;;13.13;7.68;;;;;;;;;;5410294;26;19987;-68
2024/04/21 08:50:38;;;;;;;13.07;7.60;;;;;;;;;;5409682;26;20057;-66
2024/04/21 08:53:04;;;;;;;13.00;7.57;;;;;;;;;;5408746;26;20088;-65
2024/04/21 08:55:32;;;;;;;12.90;7.50;;;;;;;;;;5409809;26;20003;-68
2024/04/21 08:57:58;;;;;;;12.95;7.53;;;;;;;;;;5410735;26;20016;-65
2024/04/21 09:00:25;;;;;;;13.13;7.68;;;;;;;;;;5408838;26;20107;-65
2024/04/21 09:02:51;;;;;;;13.30;7.80;;;;;;;;;;5411920;26;20031;-65
2024/04/21 09:05:18;;;;;;;13.25;7.82;;;;;;;;;;5412055;26;20469;-66
2024/04/21 09:07:44;;;;;;;13.25;7.85;;;;;;;;;;5412711;26;19991;-63
2024/04/21 09:10:14;;;;;;;13.20;7.80;;;;;;;;;;5411879;26;20088;-65
2024/04/21 09:12:41;;;;;;;13.32;7.90;;;;;;;;;;5411838;26;20028;-65
2024/04/21 09:15:09;;;;;;;13.23;7.72;;;;;;;;;;5411305;26;20362;-65
2024/04/21 09:17:35;;;;;;;13.20;7.70;;;;;;;;;;5413035;26;20057;-65
2024/04/21 09:20:01;;;;;;;13.23;7.70;;;;;;;;;;5413011;26;20023;-65
2024/04/21 09:22:27;;;;;;;13.05;7.63;;;;;;;;;;5412507;26;20003;-67
2024/04/21 09:24:53;;;;;;;13.30;7.88;;;;;;;;;;5410877;26;19998;-60
2024/04/21 09:27:19;;;;;;;13.10;7.60;;;;;;;;;;5412298;26;20604;-65
2024/04/21 09:29:45;;;;;;;13.23;7.70;;;;;;;;;;5412845;26;20020;-64
2024/04/21 09:32:13;;;;;;;13.05;7.68;;;;;;;;;;5411763;26;19999;-65
2024/04/21 09:34:40;;;;;;;13.33;7.97;;;;;;;;;;5411272;26;20388;-65
2024/04/21 09:37:06;;;;;;;13.18;7.80;;;;;;;;;;5412246;26;20495;-61
2024/04/21 09:39:32;;;;;;;13.43;8.10;;;;;;;;;;5411911;26;20007;-64
2024/04/21 09:41:59;;;;;;;13.45;8.25;;;;;;;;;;5412276;26;20003;-64
2024/04/21 09:44:26;;;;;;;13.35;8.18;;;;;;;;;;5411641;26;20003;-67
2024/04/21 09:46:52;;;;;;;13.38;8.02;;;;;;;;;;5412123;26;19992;-64
2024/04/21 09:49:19;;;;;;;13.40;8.20;;;;;;;;;;5412264;26;20002;-65
2024/04/21 09:51:45;;;;;;;13.50;8.23;;;;;;;;;;5411924;26;19991;-65
2024/04/21 09:54:12;;;;;;;13.57;8.60;;;;;;;;;;5411316;26;19992;-65
2024/04/21 09:56:41;;;;;;;13.45;8.30;;;;;;;;;;5411243;26;19996;-64
2024/04/21 09:59:11;;;;;;;13.45;8.43;;;;;;;;;;5412110;26;20039;-65
2024/04/21 10:01:40;;;;;;;13.55;8.60;;;;;;;;;;5411768;26;20003;-66
2024/04/21 10:04:08;;;;;;;13.63;8.77;;;;;;;;;;5411305;26;20006;-65
2024/04/21 10:06:34;;;;;;;;;;;;;;;;;;5412632;26;20506;-63
2024/04/21 10:09:03;;;;;;;13.50;8.20;;;;;;;;;;5412176;26;19933;-65
2024/04/21 10:11:30;;;;;;;13.57;8.48;;;;;;;;;;5411442;26;19999;-65
2024/04/21 10:13:59;;;;;;;13.57;8.60;;;;;;;;;;5408990;26;20000;-65
2024/04/21 10:16:25;;;;;;;13.60;8.80;;;;;;;;;;5411074;26;20024;-66
2024/04/21 10:19:04;;;;;;;13.57;8.57;;;;;;;;;;5411466;26;20010;-65
2024/04/21 10:21:30;;;;;;;13.65;8.70;;;;;;;;;;5411419;26;20357;-65
2024/04/21 10:23:56;;;;;;;13.60;8.70;;;;;;;;;;5409246;26;20453;-64
2024/04/21 10:26:22;;;;;;;13.65;8.82;;;;;;;;;;5411259;26;20063;-60
2024/04/21 10:28:48;;;;;;;13.60;8.70;;;;;;;;;;5411268;26;20019;-66
2024/04/21 10:31:14;;;;;;;13.55;8.68;;;;;;;;;;5411258;26;19991;-67
2024/04/21 10:33:40;;;;;;;13.68;9.00;;;;;;;;;;5410223;26;19996;-64
2024/04/21 10:36:20;;;;;;;13.70;8.95;;;;;;;;;;5409678;26;20023;-65
2024/04/21 10:38:55;;;;;;;13.75;9.15;;;;;;;;;;5410832;26;19999;-66
2024/04/21 10:41:22;;;;;;;13.80;9.27;;;;;;;;;;5409965;26;20024;-65
2024/04/21 10:43:51;;;;;;;13.70;9.02;;;;;;;;;;5410099;26;19995;-65
2024/04/21 10:46:17;;;;;;;13.70;9.07;;;;;;;;;;5411303;26;20000;-65
2024/04/21 10:48:43;;;;;;;13.77;9.20;;;;;;;;;;5411099;26;19996;-65
2024/04/21 10:51:09;;;;;;;13.60;8.77;;;;;;;;;;5411357;26;19991;-65
2024/04/21 10:53:35;;;;;;;13.60;8.60;;;;;;;;;;5410331;26;19992;-64
2024/04/21 10:56:01;;;;;;;13.65;8.82;;;;;;;;;;5396120;26;20066;-66
2024/04/21 10:58:30;;;;;;;13.73;9.10;;;;;;;;;;5374948;26;20504;-66
2024/04/21 11:00:56;;;;;;;13.70;8.98;;;;;;;;;;5375735;26;20006;-66
2024/04/21 11:03:22;;;;;;;13.75;9.10;;;;;;;;;;5372801;26;19992;-65
2024/04/21 11:05:48;;;;;;;13.75;9.18;;;;;;;;;;5375671;26;20011;-66
2024/04/21 11:08:15;;;;;;;13.60;8.80;;;;;;;;;;5375956;26;20015;-66
2024/04/21 11:10:42;;;;;;;13.50;8.50;;;;;;;;;;5376932;26;20473;-65
2024/04/21 11:13:08;;;;;;;13.65;8.90;;;;;;;;;;5375633;26;20000;-66
2024/04/21 11:15:42;;;;;;;13.75;9.02;;;;;;;;;;5375603;26;20380;-66
2024/04/21 11:18:08;;;;;;;13.95;9.55;;;;;;;;;;5375653;26;20023;-65
2024/04/21 11:20:35;;;;;;;13.90;9.50;;;;;;;;;;5374031;26;20012;-67
2024/04/21 11:23:01;;;;;;;13.90;9.48;;;;;;;;;;5374936;26;20095;-66
2024/04/21 11:25:27;;;;;;;13.90;9.50;;;;;;;;;;5375489;26;20003;-66
2024/04/21 11:27:53;;;;;;;13.90;9.45;;;;;;;;;;5375875;26;19992;-66
2024/04/21 11:30:20;;;;;;;13.90;9.60;;;;;;;;;;5373662;26;20004;-65
2024/04/21 11:32:47;;;;;;;13.98;9.77;;;;;;;;;;5375447;26;20090;-66
2024/04/21 11:35:14;;;;;;;13.95;9.70;;;;;;;;;;5375365;26;20008;-65
2024/04/21 11:37:40;;;;;;;14.02;9.88;;;;;;;;;;5375265;26;19992;-66
2024/04/21 11:40:07;;;;;;;13.90;9.50;;;;;;;;;;5375137;26;20004;-66
2024/04/21 11:42:33;;;;;;;14.00;9.88;;;;;;;;;;5395009;26;20039;-67
2024/04/21 11:44:59;;;;;;;14.00;9.85;;;;;;;;;;5408222;26;19992;-69
2024/04/21 11:47:25;;;;;;;14.07;10.00;;;;;;;;;;5375803;26;20040;-66
2024/04/21 11:49:51;;;;;;;14.02;10.00;;;;;;;;;;5379350;26;19996;-65
2024/04/21 11:52:17;;;;;;;14.20;10.38;;;;;;;;;;5380142;26;20012;-68
2024/04/21 11:54:43;;;;;;;14.15;10.27;;;;;;;;;;5402831;26;20011;-64
2024/04/21 11:57:09;;;;;;;14.25;10.40;;;;;;;;;;5410885;26;19999;-66
2024/04/21 11:59:35;;;;;;;14.10;10.10;;;;;;;;;;5381002;26;20075;-66
2024/04/21 12:02:01;;;;;;;14.10;10.10;;;;;;;;;;5377449;26;20427;-68
2024/04/21 12:04:27;;;;;;;14.10;10.10;;;;;;;;;;5401274;26;20004;-64
2024/04/21 12:06:53;;;;;;;14.10;10.18;;;;;;;;;;5413505;26;19991;-66
2024/04/21 12:09:19;;;;;;;14.00;9.98;;;;;;;;;;5413223;26;20477;-66
2024/04/21 12:11:45;;;;;;;14.02;9.90;;;;;;;;;;5440788;26;19999;-65
2024/04/21 12:14:24;;;;;;;13.98;9.80;;;;;;;;;;5400767;26;20008;-66
2024/04/21 12:16:50;;;;;;;14.00;9.90;;;;;;;;;;5402713;26;20018;-66
2024/04/21 12:19:16;;;;;;;13.98;9.77;;;;;;;;;;5392861;26;20007;-65
2024/04/21 12:21:42;;;;;;;14.00;9.88;;;;;;;;;;5391974;26;20011;-72
2024/04/21 12:24:08;;;;;;;14.10;10.00;;;;;;;;;;5398180;26;19995;-68
2024/04/21 12:26:34;;;;;;;14.00;9.90;;;;;;;;;;5413521;26;19996;-68
2024/04/21 12:29:00;;;;;;;13.98;9.80;;;;;;;;;;5413905;26;20052;-66
2024/04/21 12:31:26;;;;;;;13.93;9.75;;;;;;;;;;5410910;26;20007;-67
2024/04/21 12:33:53;;;;;;;14.00;9.80;;;;;;;;;;5410138;26;20047;-67
2024/04/21 12:36:19;;;;;;;14.10;10.07;;;;;;;;;;5410673;26;20024;-64
2024/04/21 12:38:45;;;;;;;13.90;9.48;;;;;;;;;;5411700;26;19991;-66
2024/04/21 12:41:11;;;;;;;13.85;9.32;;;;;;;;;;5411713;26;20731;-67
2024/04/21 12:43:37;;;;;;;13.88;9.60;;;;;;;;;;5410246;26;20006;-67
2024/04/21 12:46:03;;;;;;;13.93;9.77;;;;;;;;;;5410617;26;20337;-66
2024/04/21 12:48:29;;;;;;;13.98;9.75;;;;;;;;;;5412344;26;19995;-67
2024/04/21 12:50:55;;;;;;;14.18;10.30;;;;;;;;;;5413405;26;20036;-67
2024/04/21 12:53:21;;;;;;;14.00;9.80;;;;;;;;;;5410347;26;20007;-65
2024/04/21 12:55:47;;;;;;;14.23;10.32;;;;;;;;;;5412123;26;20004;-70
2024/04/21 12:58:13;;;;;;;14.23;10.48;;;;;;;;;;5411235;26;19991;-66
2024/04/21 13:00:39;;;;;;;14.20;10.32;;;;;;;;;;5412356;26;20071;-64
2024/04/21 13:03:05;;;;;;;14.30;10.60;;;;;;;;;;5412167;26;20031;-66
2024/04/21 13:05:32;;;;;;;14.27;10.50;;;;;;;;;;5412562;26;20070;-64
2024/04/21 13:07:58;;;;;;;14.30;10.70;;;;;;;;;;5410260;26;20402;-65
2024/04/21 13:10:27;;;;;;;14.35;10.73;;;;;;;;;;5413333;26;19992;-67
2024/04/21 13:12:53;;;;;;;14.30;10.57;;;;;;;;;;5410581;26;20521;-67
2024/04/21 13:15:19;;;;;;;14.18;10.30;;;;;;;;;;5411780;26;20007;-66
2024/04/21 13:17:45;;;;;;;14.30;10.63;;;;;;;;;;5412509;26;19998;-67
2024/04/21 13:20:13;;;;;;;14.20;10.40;;;;;;;;;;5412208;26;20000;-67
2024/04/21 13:22:39;;;;;;;14.20;10.38;;;;;;;;;;5412444;26;19995;-66
2024/04/21 13:25:06;;;;;;;14.27;10.40;;;;;;;;;;5409646;26;19995;-66
2024/04/21 13:27:36;;;;;;;14.20;10.38;;;;;;;;;;5410234;26;20004;-66
2024/04/21 13:30:02;;;;;;;14.07;10.00;;;;;;;;;;5411394;26;19996;-66
2024/04/21 13:32:28;;;;;;;14.15;10.30;;;;;;;;;;5411538;26;19999;-64
2024/04/21 13:34:54;;;;;;;14.20;10.40;;;;;;;;;;5410719;26;19995;-64
2024/04/21 13:37:20;;;;;;;14.25;10.50;;;;;;;;;;5411160;26;20004;-66
2024/04/21 13:39:46;;;;;;;14.10;10.10;;;;;;;;;;5412502;26;19996;-67
2024/04/21 13:42:12;;;;;;;14.07;9.95;;;;;;;;;;5412271;26;20010;-66
2024/04/21 13:44:38;;;;;;;14.18;10.30;;;;;;;;;;5408908;26;20076;-67
2024/04/21 13:47:04;;;;;;;14.15;10.20;;;;;;;;;;5376206;26;19996;-65
2024/04/21 13:49:30;;;;;;;14.10;10.00;;;;;;;;;;5374203;26;19988;-65
2024/04/21 13:51:56;;;;;;;14.10;10.07;;;;;;;;;;5375647;26;20007;-66
2024/04/21 13:54:22;;;;;;;14.02;10.05;;;;;;;;;;5375724;26;20007;-65
2024/04/21 13:56:48;;;;;;;14.07;10.10;;;;;;;;;;5376210;26;20446;-66
2024/04/21 13:59:14;;;;;;;14.20;10.48;;;;;;;;;;5376429;26;20172;-66
2024/04/21 14:01:40;;;;;;;14.20;10.40;;;;;;;;;;5372901;26;19997;-68
2024/04/21 14:04:06;;;;;;;14.18;10.38;;;;;;;;;;5375908;26;20012;-66
2024/04/21 14:06:32;;;;;;;14.20;10.27;;;;;;;;;;5376459;26;20011;-66
2024/04/21 14:08:59;;;;;;;14.10;10.20;;;;;;;;;;5386995;26;20411;-66
2024/04/21 14:11:25;;;;;;;14.20;10.32;;;;;;;;;;5411274;26;20037;-66
2024/04/21 14:13:52;;;;;;;14.18;10.40;;;;;;;;;;5411113;26;19992;-66
2024/04/21 14:16:19;;;;;;;14.00;9.90;;;;;;;;;;5401409;26;20330;-66
2024/04/21 14:18:45;;;;;;;14.00;9.90;;;;;;;;;;5411611;26;20083;-64
2024/04/21 14:21:11;;;;;;;13.93;9.57;;;;;;;;;;5395581;26;20012;-67
2024/04/21 14:23:37;;;;;;;13.95;9.77;;;;;;;;;;5375781;26;20011;-66
2024/04/21 14:26:03;;;;;;;14.00;9.98;;;;;;;;;;5400419;26;20010;-66